sensor_id;sensor_type;location;lat;lon;timestamp;P1;durP1;ratioP1;P2;durP2;ratioP2
71572;SDS011;59408;51.032;9.410;2024-03-08T00:01:32;28.83;;;12.40;;
71572;SDS011;59408;51.032;9.410;2024-03-08T00:03:58;27.90;;;12.17;;
71572;SDS011;59408;51.032;9.410;2024-03-08T00:06:26;29.92;;;13.10;;
71572;SDS011;59408;51.032;9.410;2024-03-08T00:08:52;27.17;;;11.85;;
71572;SDS011;59408;51.032;9.410;2024-03-08T00:11:19;30.52;;;12.77;;
71572;SDS011;59408;51.032;9.410;2024-03-08T00:13:45;32.92;;;13.82;;
71572;SDS011;59408;51.032;9.410;2024-03-08T00:16:12;28.07;;;12.23;;
71572;SDS011;59408;51.032;9.410;2024-03-08T00:18:38;28.48;;;12.82;;
71572;SDS011;59408;51.032;9.410;2024-03-08T00:21:05;27.85;;;12.52;;
71572;SDS011;59408;51.032;9.410;2024-03-08T00:23:33;27.98;;;12.43;;
71572;SDS011;59408;51.032;9.410;2024-03-08T00:25:59;31.08;;;13.73;;
71572;SDS011;59408;51.032;9.410;2024-03-08T00:28:26;26.20;;;11.90;;
71572;SDS011;59408;51.032;9.410;2024-03-08T00:30:52;27.48;;;13.07;;
71572;SDS011;59408;51.032;9.410;2024-03-08T00:33:19;28.73;;;12.65;;
71572;SDS011;59408;51.032;9.410;2024-03-08T00:35:45;31.08;;;12.45;;
71572;SDS011;59408;51.032;9.410;2024-03-08T00:38:12;31.27;;;13.20;;
71572;SDS011;59408;51.032;9.410;2024-03-08T00:40:40;30.07;;;12.80;;
71572;SDS011;59408;51.032;9.410;2024-03-08T00:43:06;30.15;;;13.38;;
71572;SDS011;59408;51.032;9.410;2024-03-08T00:45:33;29.17;;;12.38;;
71572;SDS011;59408;51.032;9.410;2024-03-08T00:47:59;30.85;;;13.35;;
71572;SDS011;59408;51.032;9.410;2024-03-08T00:50:26;29.48;;;12.55;;
71572;SDS011;59408;51.032;9.410;2024-03-08T00:52:52;29.03;;;13.07;;
71572;SDS011;59408;51.032;9.410;2024-03-08T00:55:19;30.92;;;13.50;;
71572;SDS011;59408;51.032;9.410;2024-03-08T00:57:46;31.95;;;13.68;;
71572;SDS011;59408;51.032;9.410;2024-03-08T01:00:13;28.48;;;11.88;;
71572;SDS011;59408;51.032;9.410;2024-03-08T01:02:40;27.20;;;12.13;;
71572;SDS011;59408;51.032;9.410;2024-03-08T01:05:07;30.30;;;13.37;;
71572;SDS011;59408;51.032;9.410;2024-03-08T01:07:34;27.27;;;11.93;;
71572;SDS011;59408;51.032;9.410;2024-03-08T01:10:00;29.75;;;12.75;;
71572;SDS011;59408;51.032;9.410;2024-03-08T01:12:27;28.65;;;12.57;;
71572;SDS011;59408;51.032;9.410;2024-03-08T01:14:55;28.88;;;12.77;;
71572;SDS011;59408;51.032;9.410;2024-03-08T01:17:22;28.87;;;12.63;;
71572;SDS011;59408;51.032;9.410;2024-03-08T01:19:48;29.75;;;13.05;;
71572;SDS011;59408;51.032;9.410;2024-03-08T01:22:15;31.17;;;12.90;;
71572;SDS011;59408;51.032;9.410;2024-03-08T01:24:41;27.30;;;12.80;;
71572;SDS011;59408;51.032;9.410;2024-03-08T01:27:08;31.50;;;13.05;;
71572;SDS011;59408;51.032;9.410;2024-03-08T01:29:34;29.73;;;12.57;;
71572;SDS011;59408;51.032;9.410;2024-03-08T01:32:02;30.63;;;12.55;;
71572;SDS011;59408;51.032;9.410;2024-03-08T01:34:29;29.50;;;12.65;;
71572;SDS011;59408;51.032;9.410;2024-03-08T01:36:55;31.55;;;12.88;;
71572;SDS011;59408;51.032;9.410;2024-03-08T01:39:22;30.77;;;13.63;;
71572;SDS011;59408;51.032;9.410;2024-03-08T01:41:48;27.80;;;12.27;;
71572;SDS011;59408;51.032;9.410;2024-03-08T01:44:15;29.77;;;13.32;;
71572;SDS011;59408;51.032;9.410;2024-03-08T01:46:41;30.23;;;13.57;;
71572;SDS011;59408;51.032;9.410;2024-03-08T01:49:09;32.75;;;13.50;;
71572;SDS011;59408;51.032;9.410;2024-03-08T01:51:36;29.27;;;12.70;;
71572;SDS011;59408;51.032;9.410;2024-03-08T01:54:03;29.57;;;12.17;;
71572;SDS011;59408;51.032;9.410;2024-03-08T01:56:30;26.95;;;11.77;;
71572;SDS011;59408;51.032;9.410;2024-03-08T01:58:57;29.58;;;12.32;;
71572;SDS011;59408;51.032;9.410;2024-03-08T02:01:25;31.30;;;12.90;;
71572;SDS011;59408;51.032;9.410;2024-03-08T02:03:52;28.33;;;13.25;;
71572;SDS011;59408;51.032;9.410;2024-03-08T02:06:20;27.63;;;12.23;;
71572;SDS011;59408;51.032;9.410;2024-03-08T02:08:46;31.05;;;13.60;;
71572;SDS011;59408;51.032;9.410;2024-03-08T02:11:13;28.92;;;13.60;;
71572;SDS011;59408;51.032;9.410;2024-03-08T02:13:40;29.50;;;12.77;;
71572;SDS011;59408;51.032;9.410;2024-03-08T02:16:07;29.25;;;13.55;;
71572;SDS011;59408;51.032;9.410;2024-03-08T02:18:34;29.27;;;13.80;;
71572;SDS011;59408;51.032;9.410;2024-03-08T02:21:02;30.13;;;13.18;;
71572;SDS011;59408;51.032;9.410;2024-03-08T02:23:31;30.90;;;14.18;;
71572;SDS011;59408;51.032;9.410;2024-03-08T02:25:58;27.92;;;12.70;;
71572;SDS011;59408;51.032;9.410;2024-03-08T02:28:25;31.10;;;12.75;;
71572;SDS011;59408;51.032;9.410;2024-03-08T02:30:51;31.07;;;13.73;;
71572;SDS011;59408;51.032;9.410;2024-03-08T02:33:18;32.33;;;13.60;;
71572;SDS011;59408;51.032;9.410;2024-03-08T02:35:45;29.42;;;13.25;;
71572;SDS011;59408;51.032;9.410;2024-03-08T02:38:14;29.55;;;13.13;;
71572;SDS011;59408;51.032;9.410;2024-03-08T02:40:42;30.60;;;13.38;;
71572;SDS011;59408;51.032;9.410;2024-03-08T02:43:08;31.37;;;13.10;;
71572;SDS011;59408;51.032;9.410;2024-03-08T02:45:35;31.33;;;13.23;;
71572;SDS011;59408;51.032;9.410;2024-03-08T02:48:02;29.65;;;12.70;;
71572;SDS011;59408;51.032;9.410;2024-03-08T02:50:29;32.03;;;13.30;;
71572;SDS011;59408;51.032;9.410;2024-03-08T02:52:55;31.95;;;13.65;;
71572;SDS011;59408;51.032;9.410;2024-03-08T02:55:23;30.33;;;13.23;;
71572;SDS011;59408;51.032;9.410;2024-03-08T02:57:49;29.77;;;13.90;;
71572;SDS011;59408;51.032;9.410;2024-03-08T03:00:16;30.10;;;12.93;;
71572;SDS011;59408;51.032;9.410;2024-03-08T03:02:43;31.73;;;13.25;;
71572;SDS011;59408;51.032;9.410;2024-03-08T03:05:09;29.55;;;13.32;;
71572;SDS011;59408;51.032;9.410;2024-03-08T03:07:36;33.23;;;13.47;;
71572;SDS011;59408;51.032;9.410;2024-03-08T03:10:02;33.03;;;13.32;;
71572;SDS011;59408;51.032;9.410;2024-03-08T03:12:31;31.27;;;13.93;;
71572;SDS011;59408;51.032;9.410;2024-03-08T03:14:57;29.38;;;13.18;;
71572;SDS011;59408;51.032;9.410;2024-03-08T03:17:24;29.88;;;13.25;;
71572;SDS011;59408;51.032;9.410;2024-03-08T03:19:51;30.03;;;12.93;;
71572;SDS011;59408;51.032;9.410;2024-03-08T03:22:18;34.65;;;14.38;;
71572;SDS011;59408;51.032;9.410;2024-03-08T03:24:45;32.00;;;13.70;;
71572;SDS011;59408;51.032;9.410;2024-03-08T03:27:11;31.55;;;13.38;;
71572;SDS011;59408;51.032;9.410;2024-03-08T03:29:39;30.38;;;14.23;;
71572;SDS011;59408;51.032;9.410;2024-03-08T03:32:07;29.43;;;13.33;;
71572;SDS011;59408;51.032;9.410;2024-03-08T03:34:33;32.40;;;13.73;;
71572;SDS011;59408;51.032;9.410;2024-03-08T03:37:00;31.20;;;13.60;;
71572;SDS011;59408;51.032;9.410;2024-03-08T03:39:26;38.05;;;14.68;;
71572;SDS011;59408;51.032;9.410;2024-03-08T03:41:53;31.55;;;12.55;;
71572;SDS011;59408;51.032;9.410;2024-03-08T03:44:19;33.37;;;13.97;;
71572;SDS011;59408;51.032;9.410;2024-03-08T03:46:47;28.70;;;12.90;;
71572;SDS011;59408;51.032;9.410;2024-03-08T03:49:13;32.15;;;14.25;;
71572;SDS011;59408;51.032;9.410;2024-03-08T03:51:40;32.60;;;14.15;;
71572;SDS011;59408;51.032;9.410;2024-03-08T03:54:06;32.97;;;14.90;;
71572;SDS011;59408;51.032;9.410;2024-03-08T03:56:33;28.13;;;13.20;;
71572;SDS011;59408;51.032;9.410;2024-03-08T03:58:59;30.48;;;13.20;;
71572;SDS011;59408;51.032;9.410;2024-03-08T04:01:26;32.10;;;13.93;;
71572;SDS011;59408;51.032;9.410;2024-03-08T04:03:54;31.33;;;13.55;;
71572;SDS011;59408;51.032;9.410;2024-03-08T04:06:20;29.00;;;13.55;;
71572;SDS011;59408;51.032;9.410;2024-03-08T04:08:47;31.23;;;14.37;;
71572;SDS011;59408;51.032;9.410;2024-03-08T04:11:13;29.60;;;13.32;;
71572;SDS011;59408;51.032;9.410;2024-03-08T04:13:40;31.98;;;14.32;;
71572;SDS011;59408;51.032;9.410;2024-03-08T04:16:06;30.48;;;13.52;;
71572;SDS011;59408;51.032;9.410;2024-03-08T04:18:33;34.70;;;15.35;;
71572;SDS011;59408;51.032;9.410;2024-03-08T04:21:01;32.40;;;13.27;;
71572;SDS011;59408;51.032;9.410;2024-03-08T04:23:27;31.58;;;13.45;;
71572;SDS011;59408;51.032;9.410;2024-03-08T04:25:54;32.92;;;14.45;;
71572;SDS011;59408;51.032;9.410;2024-03-08T04:28:20;31.33;;;13.43;;
71572;SDS011;59408;51.032;9.410;2024-03-08T04:30:47;33.08;;;13.93;;
71572;SDS011;59408;51.032;9.410;2024-03-08T04:33:13;33.93;;;14.20;;
71572;SDS011;59408;51.032;9.410;2024-03-08T04:35:40;29.98;;;13.95;;
71572;SDS011;59408;51.032;9.410;2024-03-08T04:38:07;32.90;;;14.82;;
71572;SDS011;59408;51.032;9.410;2024-03-08T04:40:34;30.25;;;13.65;;
71572;SDS011;59408;51.032;9.410;2024-03-08T04:43:01;28.40;;;13.10;;
71572;SDS011;59408;51.032;9.410;2024-03-08T04:45:27;32.47;;;13.97;;
71572;SDS011;59408;51.032;9.410;2024-03-08T04:47:54;32.80;;;13.40;;
71572;SDS011;59408;51.032;9.410;2024-03-08T04:50:20;34.65;;;13.73;;
71572;SDS011;59408;51.032;9.410;2024-03-08T04:52:47;30.67;;;13.02;;
71572;SDS011;59408;51.032;9.410;2024-03-08T04:55:15;34.28;;;13.95;;
71572;SDS011;59408;51.032;9.410;2024-03-08T04:57:41;35.70;;;14.80;;
71572;SDS011;59408;51.032;9.410;2024-03-08T05:00:08;33.38;;;15.90;;
71572;SDS011;59408;51.032;9.410;2024-03-08T05:02:36;30.77;;;13.60;;
71572;SDS011;59408;51.032;9.410;2024-03-08T05:05:02;30.65;;;13.10;;
71572;SDS011;59408;51.032;9.410;2024-03-08T05:07:29;33.40;;;14.10;;
71572;SDS011;59408;51.032;9.410;2024-03-08T05:09:55;30.67;;;13.53;;
71572;SDS011;59408;51.032;9.410;2024-03-08T05:12:24;36.00;;;14.80;;
71572;SDS011;59408;51.032;9.410;2024-03-08T05:14:51;31.67;;;13.63;;
71572;SDS011;59408;51.032;9.410;2024-03-08T05:17:17;32.65;;;13.70;;
71572;SDS011;59408;51.032;9.410;2024-03-08T05:19:44;33.33;;;13.55;;
71572;SDS011;59408;51.032;9.410;2024-03-08T05:22:10;32.93;;;14.93;;
71572;SDS011;59408;51.032;9.410;2024-03-08T05:24:37;34.90;;;14.15;;
71572;SDS011;59408;51.032;9.410;2024-03-08T05:27:04;33.05;;;14.27;;
71572;SDS011;59408;51.032;9.410;2024-03-08T05:29:32;34.15;;;14.57;;
71572;SDS011;59408;51.032;9.410;2024-03-08T05:31:58;32.80;;;13.82;;
71572;SDS011;59408;51.032;9.410;2024-03-08T05:34:24;32.37;;;14.20;;
71572;SDS011;59408;51.032;9.410;2024-03-08T05:36:51;35.63;;;14.75;;
71572;SDS011;59408;51.032;9.410;2024-03-08T05:39:18;32.58;;;14.65;;
71572;SDS011;59408;51.032;9.410;2024-03-08T05:41:45;33.80;;;14.85;;
71572;SDS011;59408;51.032;9.410;2024-03-08T05:44:11;35.05;;;15.10;;
71572;SDS011;59408;51.032;9.410;2024-03-08T05:46:40;34.07;;;13.87;;
71572;SDS011;59408;51.032;9.410;2024-03-08T05:49:06;32.78;;;15.73;;
71572;SDS011;59408;51.032;9.410;2024-03-08T05:51:33;33.67;;;14.00;;
71572;SDS011;59408;51.032;9.410;2024-03-08T05:54:01;35.58;;;14.90;;
71572;SDS011;59408;51.032;9.410;2024-03-08T05:56:28;32.22;;;13.55;;
71572;SDS011;59408;51.032;9.410;2024-03-08T05:58:55;37.80;;;14.90;;
71572;SDS011;59408;51.032;9.410;2024-03-08T06:01:21;35.25;;;15.30;;
71572;SDS011;59408;51.032;9.410;2024-03-08T06:03:49;34.25;;;15.60;;
71572;SDS011;59408;51.032;9.410;2024-03-08T06:06:16;36.03;;;14.88;;
71572;SDS011;59408;51.032;9.410;2024-03-08T06:08:42;33.80;;;14.98;;
71572;SDS011;59408;51.032;9.410;2024-03-08T06:11:09;35.37;;;14.77;;
71572;SDS011;59408;51.032;9.410;2024-03-08T06:13:35;37.78;;;15.13;;
71572;SDS011;59408;51.032;9.410;2024-03-08T06:16:02;33.60;;;15.25;;
71572;SDS011;59408;51.032;9.410;2024-03-08T06:18:29;34.65;;;14.13;;
71572;SDS011;59408;51.032;9.410;2024-03-08T06:20:57;35.72;;;15.60;;
71572;SDS011;59408;51.032;9.410;2024-03-08T06:23:23;35.47;;;14.07;;
71572;SDS011;59408;51.032;9.410;2024-03-08T06:25:49;35.33;;;15.48;;
71572;SDS011;59408;51.032;9.410;2024-03-08T06:28:16;34.65;;;15.48;;
71572;SDS011;59408;51.032;9.410;2024-03-08T06:30:42;36.17;;;15.20;;
71572;SDS011;59408;51.032;9.410;2024-03-08T06:33:09;35.42;;;14.93;;
71572;SDS011;59408;51.032;9.410;2024-03-08T06:35:35;35.73;;;15.17;;
71572;SDS011;59408;51.032;9.410;2024-03-08T06:38:03;33.13;;;14.23;;
71572;SDS011;59408;51.032;9.410;2024-03-08T06:40:30;36.08;;;14.70;;
71572;SDS011;59408;51.032;9.410;2024-03-08T06:42:56;35.15;;;15.00;;
71572;SDS011;59408;51.032;9.410;2024-03-08T06:45:23;33.10;;;15.07;;
71572;SDS011;59408;51.032;9.410;2024-03-08T06:47:49;37.97;;;16.47;;
71572;SDS011;59408;51.032;9.410;2024-03-08T06:50:16;35.67;;;15.25;;
71572;SDS011;59408;51.032;9.410;2024-03-08T06:52:42;39.35;;;16.45;;
71572;SDS011;59408;51.032;9.410;2024-03-08T06:55:10;36.70;;;15.63;;
71572;SDS011;59408;51.032;9.410;2024-03-08T06:57:37;35.58;;;15.35;;
71572;SDS011;59408;51.032;9.410;2024-03-08T07:00:04;36.50;;;14.83;;
71572;SDS011;59408;51.032;9.410;2024-03-08T07:02:31;36.28;;;15.30;;
71572;SDS011;59408;51.032;9.410;2024-03-08T07:04:58;36.63;;;17.05;;
71572;SDS011;59408;51.032;9.410;2024-03-08T07:07:24;35.58;;;15.45;;
71572;SDS011;59408;51.032;9.410;2024-03-08T07:09:50;34.95;;;15.35;;
71572;SDS011;59408;51.032;9.410;2024-03-08T07:12:18;34.97;;;15.03;;
71572;SDS011;59408;51.032;9.410;2024-03-08T07:14:45;34.75;;;15.05;;
71572;SDS011;59408;51.032;9.410;2024-03-08T07:17:11;33.30;;;15.52;;
71572;SDS011;59408;51.032;9.410;2024-03-08T07:19:38;36.58;;;16.25;;
71572;SDS011;59408;51.032;9.410;2024-03-08T07:22:04;34.38;;;15.60;;
71572;SDS011;59408;51.032;9.410;2024-03-08T07:24:31;33.33;;;14.90;;
71572;SDS011;59408;51.032;9.410;2024-03-08T07:26:57;33.72;;;14.10;;
71572;SDS011;59408;51.032;9.410;2024-03-08T07:29:25;37.13;;;16.35;;
71572;SDS011;59408;51.032;9.410;2024-03-08T07:31:52;34.55;;;15.68;;
71572;SDS011;59408;51.032;9.410;2024-03-08T07:34:18;35.65;;;15.32;;
71572;SDS011;59408;51.032;9.410;2024-03-08T07:36:45;35.50;;;15.53;;
71572;SDS011;59408;51.032;9.410;2024-03-08T07:39:11;37.53;;;15.55;;
71572;SDS011;59408;51.032;9.410;2024-03-08T07:41:38;34.70;;;16.20;;
71572;SDS011;59408;51.032;9.410;2024-03-08T07:44:04;34.15;;;15.38;;
71572;SDS011;59408;51.032;9.410;2024-03-08T07:46:32;34.67;;;14.82;;
71572;SDS011;59408;51.032;9.410;2024-03-08T07:48:59;32.07;;;14.70;;
71572;SDS011;59408;51.032;9.410;2024-03-08T07:51:25;33.33;;;14.75;;
71572;SDS011;59408;51.032;9.410;2024-03-08T07:53:52;33.50;;;14.93;;
71572;SDS011;59408;51.032;9.410;2024-03-08T07:56:19;34.15;;;15.40;;
71572;SDS011;59408;51.032;9.410;2024-03-08T07:58:45;34.03;;;14.88;;
71572;SDS011;59408;51.032;9.410;2024-03-08T08:01:15;33.97;;;14.77;;
71572;SDS011;59408;51.032;9.410;2024-03-08T08:03:43;31.23;;;14.32;;
71572;SDS011;59408;51.032;9.410;2024-03-08T08:06:10;34.50;;;14.85;;
71572;SDS011;59408;51.032;9.410;2024-03-08T08:08:36;35.22;;;14.55;;
71572;SDS011;59408;51.032;9.410;2024-03-08T08:11:03;30.88;;;14.52;;
71572;SDS011;59408;51.032;9.410;2024-03-08T08:13:30;32.50;;;15.53;;
71572;SDS011;59408;51.032;9.410;2024-03-08T08:15:56;31.00;;;14.32;;
71572;SDS011;59408;51.032;9.410;2024-03-08T08:18:23;32.42;;;14.93;;
71572;SDS011;59408;51.032;9.410;2024-03-08T08:20:50;31.92;;;14.35;;
71572;SDS011;59408;51.032;9.410;2024-03-08T08:23:17;31.73;;;15.55;;
71572;SDS011;59408;51.032;9.410;2024-03-08T08:25:43;33.03;;;14.97;;
71572;SDS011;59408;51.032;9.410;2024-03-08T08:28:10;33.22;;;14.95;;
71572;SDS011;59408;51.032;9.410;2024-03-08T08:30:36;32.92;;;15.05;;
71572;SDS011;59408;51.032;9.410;2024-03-08T08:33:03;31.70;;;14.55;;
71572;SDS011;59408;51.032;9.410;2024-03-08T08:35:30;31.90;;;14.75;;
71572;SDS011;59408;51.032;9.410;2024-03-08T08:37:58;33.73;;;14.60;;
71572;SDS011;59408;51.032;9.410;2024-03-08T08:40:25;30.83;;;14.73;;
71572;SDS011;59408;51.032;9.410;2024-03-08T08:42:54;31.85;;;14.80;;
71572;SDS011;59408;51.032;9.410;2024-03-08T08:45:20;32.92;;;14.85;;
71572;SDS011;59408;51.032;9.410;2024-03-08T08:47:51;31.48;;;14.23;;
71572;SDS011;59408;51.032;9.410;2024-03-08T08:50:18;30.97;;;14.57;;
71572;SDS011;59408;51.032;9.410;2024-03-08T08:52:45;29.90;;;14.10;;
71572;SDS011;59408;51.032;9.410;2024-03-08T08:55:13;31.70;;;15.00;;
71572;SDS011;59408;51.032;9.410;2024-03-08T08:57:39;29.40;;;14.15;;
71572;SDS011;59408;51.032;9.410;2024-03-08T09:00:06;31.65;;;13.73;;
71572;SDS011;59408;51.032;9.410;2024-03-08T09:02:34;30.50;;;13.77;;
71572;SDS011;59408;51.032;9.410;2024-03-08T09:05:01;32.30;;;14.70;;
71572;SDS011;59408;51.032;9.410;2024-03-08T09:07:27;27.95;;;13.73;;
71572;SDS011;59408;51.032;9.410;2024-03-08T09:09:54;28.05;;;13.43;;
71572;SDS011;59408;51.032;9.410;2024-03-08T09:12:22;30.23;;;13.50;;
71572;SDS011;59408;51.032;9.410;2024-03-08T09:14:48;31.13;;;13.73;;
71572;SDS011;59408;51.032;9.410;2024-03-08T09:17:14;28.83;;;14.05;;
71572;SDS011;59408;51.032;9.410;2024-03-08T09:19:41;26.75;;;13.07;;
71572;SDS011;59408;51.032;9.410;2024-03-08T09:22:07;25.58;;;12.93;;
71572;SDS011;59408;51.032;9.410;2024-03-08T09:24:34;30.95;;;13.73;;
71572;SDS011;59408;51.032;9.410;2024-03-08T09:27:00;27.53;;;13.47;;
71572;SDS011;59408;51.032;9.410;2024-03-08T09:29:28;26.75;;;13.07;;
71572;SDS011;59408;51.032;9.410;2024-03-08T09:31:54;26.73;;;12.52;;
71572;SDS011;59408;51.032;9.410;2024-03-08T09:34:21;29.17;;;13.07;;
71572;SDS011;59408;51.032;9.410;2024-03-08T09:36:57;26.77;;;12.80;;
71572;SDS011;59408;51.032;9.410;2024-03-08T09:39:24;28.00;;;13.47;;
71572;SDS011;59408;51.032;9.410;2024-03-08T09:41:52;27.63;;;13.15;;
71572;SDS011;59408;51.032;9.410;2024-03-08T09:44:19;23.35;;;11.80;;
71572;SDS011;59408;51.032;9.410;2024-03-08T09:46:47;24.98;;;12.63;;
71572;SDS011;59408;51.032;9.410;2024-03-08T09:49:13;25.52;;;12.90;;
71572;SDS011;59408;51.032;9.410;2024-03-08T09:51:40;28.43;;;12.73;;
71572;SDS011;59408;51.032;9.410;2024-03-08T09:54:06;26.42;;;13.35;;
71572;SDS011;59408;51.032;9.410;2024-03-08T09:56:42;23.77;;;11.57;;
71572;SDS011;59408;51.032;9.410;2024-03-08T09:59:09;23.45;;;11.82;;
71572;SDS011;59408;51.032;9.410;2024-03-08T10:01:36;25.80;;;12.27;;
71572;SDS011;59408;51.032;9.410;2024-03-08T10:04:04;26.13;;;12.30;;
71572;SDS011;59408;51.032;9.410;2024-03-08T10:06:30;24.88;;;12.07;;
71572;SDS011;59408;51.032;9.410;2024-03-08T10:08:57;23.02;;;12.25;;
71572;SDS011;59408;51.032;9.410;2024-03-08T10:11:24;22.45;;;11.88;;
71572;SDS011;59408;51.032;9.410;2024-03-08T10:13:51;24.70;;;11.85;;
71572;SDS011;59408;51.032;9.410;2024-03-08T10:16:18;24.63;;;11.70;;
71572;SDS011;59408;51.032;9.410;2024-03-08T10:18:45;24.02;;;12.60;;
71572;SDS011;59408;51.032;9.410;2024-03-08T10:21:13;23.50;;;12.07;;
71572;SDS011;59408;51.032;9.410;2024-03-08T10:23:40;24.00;;;11.75;;
71572;SDS011;59408;51.032;9.410;2024-03-08T10:26:10;23.13;;;11.55;;
71572;SDS011;59408;51.032;9.410;2024-03-08T10:28:37;21.67;;;11.13;;
71572;SDS011;59408;51.032;9.410;2024-03-08T10:31:04;22.02;;;11.38;;
71572;SDS011;59408;51.032;9.410;2024-03-08T10:33:30;23.65;;;11.35;;
71572;SDS011;59408;51.032;9.410;2024-03-08T10:35:57;26.65;;;11.82;;
71572;SDS011;59408;51.032;9.410;2024-03-08T10:38:25;22.67;;;11.98;;
71572;SDS011;59408;51.032;9.410;2024-03-08T10:40:52;23.23;;;10.97;;
71572;SDS011;59408;51.032;9.410;2024-03-08T10:43:22;19.65;;;10.93;;
71572;SDS011;59408;51.032;9.410;2024-03-08T10:45:55;22.48;;;11.13;;
71572;SDS011;59408;51.032;9.410;2024-03-08T10:48:32;21.88;;;10.73;;
71572;SDS011;59408;51.032;9.410;2024-03-08T10:51:07;19.35;;;9.65;;
71572;SDS011;59408;51.032;9.410;2024-03-08T10:53:36;19.90;;;10.17;;
71572;SDS011;59408;51.032;9.410;2024-03-08T10:56:04;18.75;;;9.98;;
71572;SDS011;59408;51.032;9.410;2024-03-08T10:58:30;19.73;;;10.55;;
71572;SDS011;59408;51.032;9.410;2024-03-08T11:00:57;20.73;;;10.73;;
71572;SDS011;59408;51.032;9.410;2024-03-08T11:06:16;20.07;;;9.83;;
71572;SDS011;59408;51.032;9.410;2024-03-08T11:08:45;19.35;;;10.02;;
71572;SDS011;59408;51.032;9.410;2024-03-08T11:14:00;20.27;;;10.48;;
71572;SDS011;59408;51.032;9.410;2024-03-08T11:16:37;19.67;;;10.50;;
71572;SDS011;59408;51.032;9.410;2024-03-08T11:19:05;21.63;;;10.83;;
71572;SDS011;59408;51.032;9.410;2024-03-08T11:21:33;20.00;;;10.60;;
71572;SDS011;59408;51.032;9.410;2024-03-08T11:24:00;19.45;;;10.02;;
71572;SDS011;59408;51.032;9.410;2024-03-08T11:26:28;21.67;;;10.98;;
71572;SDS011;59408;51.032;9.410;2024-03-08T11:28:55;20.70;;;10.90;;
71572;SDS011;59408;51.032;9.410;2024-03-08T11:32:07;22.30;;;10.70;;
71572;SDS011;59408;51.032;9.410;2024-03-08T11:34:34;21.13;;;10.95;;
71572;SDS011;59408;51.032;9.410;2024-03-08T11:37:01;22.27;;;10.90;;
71572;SDS011;59408;51.032;9.410;2024-03-08T11:39:31;21.58;;;10.90;;
71572;SDS011;59408;51.032;9.410;2024-03-08T11:41:58;20.63;;;11.30;;
71572;SDS011;59408;51.032;9.410;2024-03-08T11:44:26;20.17;;;10.23;;
71572;SDS011;59408;51.032;9.410;2024-03-08T11:46:53;24.40;;;11.35;;
71572;SDS011;59408;51.032;9.410;2024-03-08T11:49:19;21.95;;;11.43;;
71572;SDS011;59408;51.032;9.410;2024-03-08T11:51:46;20.55;;;10.90;;
71572;SDS011;59408;51.032;9.410;2024-03-08T11:54:13;20.25;;;10.82;;
71572;SDS011;59408;51.032;9.410;2024-03-08T11:56:40;20.37;;;10.97;;
71572;SDS011;59408;51.032;9.410;2024-03-08T11:59:10;20.85;;;10.25;;
71572;SDS011;59408;51.032;9.410;2024-03-08T12:01:37;21.60;;;11.38;;
71572;SDS011;59408;51.032;9.410;2024-03-08T12:04:04;21.52;;;10.68;;
71572;SDS011;59408;51.032;9.410;2024-03-08T12:06:36;22.02;;;11.13;;
71572;SDS011;59408;51.032;9.410;2024-03-08T12:09:03;20.73;;;10.80;;
71572;SDS011;59408;51.032;9.410;2024-03-08T12:11:29;19.48;;;9.98;;
71572;SDS011;59408;51.032;9.410;2024-03-08T12:14:00;22.05;;;11.55;;
71572;SDS011;59408;51.032;9.410;2024-03-08T12:16:27;20.42;;;10.85;;
71572;SDS011;59408;51.032;9.410;2024-03-08T12:18:53;25.42;;;13.18;;
71572;SDS011;59408;51.032;9.410;2024-03-08T12:21:20;27.40;;;13.40;;
71572;SDS011;59408;51.032;9.410;2024-03-08T12:23:47;22.52;;;12.10;;
71572;SDS011;59408;51.032;9.410;2024-03-08T12:26:15;25.33;;;13.55;;
71572;SDS011;59408;51.032;9.410;2024-03-08T12:28:42;25.75;;;12.93;;
71572;SDS011;59408;51.032;9.410;2024-03-08T12:31:15;25.23;;;12.75;;
71572;SDS011;59408;51.032;9.410;2024-03-08T12:33:48;22.90;;;11.90;;
71572;SDS011;59408;51.032;9.410;2024-03-08T12:36:17;22.55;;;11.95;;
71572;SDS011;59408;51.032;9.410;2024-03-08T12:38:44;22.15;;;12.43;;
71572;SDS011;59408;51.032;9.410;2024-03-08T12:41:11;24.48;;;12.45;;
71572;SDS011;59408;51.032;9.410;2024-03-08T12:43:37;24.95;;;13.00;;
71572;SDS011;59408;51.032;9.410;2024-03-08T12:46:04;24.20;;;13.03;;
71572;SDS011;59408;51.032;9.410;2024-03-08T12:48:35;24.33;;;13.27;;
71572;SDS011;59408;51.032;9.410;2024-03-08T12:51:01;23.42;;;13.07;;
71572;SDS011;59408;51.032;9.410;2024-03-08T12:53:28;22.92;;;13.07;;
71572;SDS011;59408;51.032;9.410;2024-03-08T12:55:54;22.52;;;12.50;;
71572;SDS011;59408;51.032;9.410;2024-03-08T12:58:21;24.53;;;12.53;;
71572;SDS011;59408;51.032;9.410;2024-03-08T13:00:47;24.25;;;12.73;;
71572;SDS011;59408;51.032;9.410;2024-03-08T13:03:17;23.10;;;12.63;;
71572;SDS011;59408;51.032;9.410;2024-03-08T13:05:45;22.13;;;11.60;;
71572;SDS011;59408;51.032;9.410;2024-03-08T13:08:11;23.13;;;12.57;;
71572;SDS011;59408;51.032;9.410;2024-03-08T13:10:38;22.97;;;12.40;;
71572;SDS011;59408;51.032;9.410;2024-03-08T13:13:05;20.83;;;11.32;;
71572;SDS011;59408;51.032;9.410;2024-03-08T13:15:31;21.13;;;11.30;;
71572;SDS011;59408;51.032;9.410;2024-03-08T13:17:58;20.02;;;10.65;;
71572;SDS011;59408;51.032;9.410;2024-03-08T13:20:24;20.33;;;11.07;;
71572;SDS011;59408;51.032;9.410;2024-03-08T13:23:00;19.97;;;11.37;;
71572;SDS011;59408;51.032;9.410;2024-03-08T13:25:27;20.58;;;11.10;;
71572;SDS011;59408;51.032;9.410;2024-03-08T13:27:53;19.65;;;11.13;;
71572;SDS011;59408;51.032;9.410;2024-03-08T13:30:20;19.63;;;10.50;;
71572;SDS011;59408;51.032;9.410;2024-03-08T13:32:46;21.08;;;11.27;;
71572;SDS011;59408;51.032;9.410;2024-03-08T13:35:13;17.93;;;9.80;;
71572;SDS011;59408;51.032;9.410;2024-03-08T13:37:39;22.17;;;10.52;;
71572;SDS011;59408;51.032;9.410;2024-03-08T13:40:08;21.00;;;10.63;;
71572;SDS011;59408;51.032;9.410;2024-03-08T13:42:36;20.52;;;10.20;;
71572;SDS011;59408;51.032;9.410;2024-03-08T13:45:03;19.90;;;10.18;;
71572;SDS011;59408;51.032;9.410;2024-03-08T13:47:30;19.13;;;10.10;;
71572;SDS011;59408;51.032;9.410;2024-03-08T13:49:57;19.52;;;10.65;;
71572;SDS011;59408;51.032;9.410;2024-03-08T13:52:24;18.75;;;9.85;;
71572;SDS011;59408;51.032;9.410;2024-03-08T13:54:50;18.98;;;9.77;;
71572;SDS011;59408;51.032;9.410;2024-03-08T13:57:18;17.95;;;9.68;;
71572;SDS011;59408;51.032;9.410;2024-03-08T13:59:44;17.57;;;9.40;;
71572;SDS011;59408;51.032;9.410;2024-03-08T14:02:11;20.60;;;10.48;;
71572;SDS011;59408;51.032;9.410;2024-03-08T14:04:37;17.98;;;10.02;;
71572;SDS011;59408;51.032;9.410;2024-03-08T14:07:04;20.83;;;10.38;;
71572;SDS011;59408;51.032;9.410;2024-03-08T14:09:30;18.95;;;10.48;;
71572;SDS011;59408;51.032;9.410;2024-03-08T14:11:57;20.40;;;10.13;;
71572;SDS011;59408;51.032;9.410;2024-03-08T14:14:25;19.70;;;10.38;;
71572;SDS011;59408;51.032;9.410;2024-03-08T14:16:51;19.33;;;10.07;;
71572;SDS011;59408;51.032;9.410;2024-03-08T14:19:18;20.00;;;10.95;;
71572;SDS011;59408;51.032;9.410;2024-03-08T14:21:45;19.30;;;9.98;;
71572;SDS011;59408;51.032;9.410;2024-03-08T14:24:12;20.37;;;10.77;;
71572;SDS011;59408;51.032;9.410;2024-03-08T14:26:38;19.10;;;10.93;;